createdAt,value
2022-09-04T00:01:43.164Z,20.37
2022-09-04T00:04:25.373Z,20.35
2022-09-04T00:07:02.183Z,20.33
2022-09-04T00:09:43.395Z,20.30
2022-09-04T00:12:11.260Z,20.27
2022-09-04T00:14:44.337Z,20.23
2022-09-04T00:17:19.946Z,20.16
2022-09-04T00:19:53.940Z,20.08
2022-09-04T00:22:36.159Z,20.05
2022-09-04T00:25:14.279Z,20.01
2022-09-04T00:27:46.979Z,20.00
2022-09-04T00:30:19.818Z,19.98
2022-09-04T00:32:55.751Z,19.98
2022-09-04T00:35:31.325Z,19.97
2022-09-04T00:38:05.017Z,19.96
2022-09-04T00:40:38.359Z,19.93
2022-09-04T00:43:35.190Z,19.85
2022-09-04T00:46:25.536Z,19.81
2022-09-04T00:49:22.780Z,19.80
2022-09-04T00:51:57.778Z,19.76
2022-09-04T00:54:48.699Z,19.70
2022-09-04T00:57:45.113Z,19.68
2022-09-04T01:00:15.468Z,19.67
2022-09-04T01:03:09.360Z,19.65
2022-09-04T01:05:45.966Z,19.59
2022-09-04T01:08:24.491Z,19.52
2022-09-04T01:11:07.943Z,19.49
2022-09-04T01:13:42.309Z,19.47
2022-09-04T01:16:16.685Z,19.42
2022-09-04T01:18:56.339Z,19.41
2022-09-04T01:21:56.347Z,19.42
2022-09-04T01:24:39.456Z,19.39
2022-09-04T01:27:10.996Z,19.39
2022-09-04T01:29:50.295Z,19.37
2022-09-04T01:32:30.206Z,19.35
2022-09-04T01:35:06.962Z,19.32
2022-09-04T01:37:50.920Z,19.28
2022-09-04T01:40:35.180Z,19.24
2022-09-04T01:43:11.291Z,19.20
2022-09-04T01:45:54.223Z,19.21
2022-09-04T01:48:31.143Z,19.16
2022-09-04T01:51:07.295Z,19.15
2022-09-04T01:53:38.287Z,19.13
2022-09-04T01:56:14.861Z,19.13
2022-09-04T01:58:51.481Z,19.12
2022-09-04T02:01:24.891Z,19.11
2022-09-04T02:04:01.486Z,19.09
2022-09-04T02:06:34.206Z,19.07
2022-09-04T02:09:15.472Z,19.07
2022-09-04T02:11:51.344Z,19.02
2022-09-04T02:14:37.404Z,19.01
2022-09-04T02:17:14.363Z,19.02
2022-09-04T02:20:05.689Z,19.00
2022-09-04T02:22:44.871Z,18.97
2022-09-04T02:25:21.749Z,18.97
2022-09-04T02:27:58.096Z,18.98
2022-09-04T02:30:33.509Z,18.96
2022-09-04T02:33:09.514Z,18.97
2022-09-04T02:35:41.035Z,18.96
2022-09-04T02:38:18.092Z,18.95
2022-09-04T02:40:52.818Z,18.95
2022-09-04T02:43:39.696Z,18.96
2022-09-04T02:46:18.870Z,18.91
2022-09-04T02:48:59.614Z,18.92
2022-09-04T02:51:41.098Z,18.93
2022-09-04T02:54:15.596Z,18.94
2022-09-04T02:56:49.978Z,18.94
2022-09-04T02:59:39.288Z,18.94
2022-09-04T03:02:19.126Z,18.92
2022-09-04T03:04:53.664Z,18.90
2022-09-04T03:07:29.278Z,18.90
2022-09-04T03:10:06.092Z,18.90
2022-09-04T03:12:41.159Z,18.87
2022-09-04T03:15:17.627Z,18.88
2022-09-04T03:17:53.415Z,18.87
2022-09-04T03:20:24.756Z,18.85
2022-09-04T03:22:59.893Z,18.85
2022-09-04T03:25:53.979Z,18.84
2022-09-04T03:28:32.351Z,18.81
2022-09-04T03:31:06.051Z,18.79
2022-09-04T03:33:43.418Z,18.74
2022-09-04T03:36:17.140Z,18.71
2022-09-04T03:39:02.382Z,18.70
2022-09-04T03:41:37.149Z,18.65
2022-09-04T03:44:18.301Z,18.61
2022-09-04T03:46:57.798Z,18.61
2022-09-04T03:49:44.159Z,18.62
2022-09-04T03:52:21.223Z,18.60
2022-09-04T03:55:05.508Z,18.55
2022-09-04T03:58:03.408Z,18.53
2022-09-04T04:00:40.801Z,18.49
2022-09-04T04:03:31.301Z,18.45
2022-09-04T04:06:14.844Z,18.45
2022-09-04T04:08:56.704Z,18.43
2022-09-04T04:11:46.679Z,18.42
2022-09-04T04:14:37.577Z,18.39
2022-09-04T04:17:21.139Z,18.36
2022-09-04T04:20:00.015Z,18.35
2022-09-04T04:22:47.278Z,18.32
2022-09-04T04:25:42.947Z,18.28
2022-09-04T04:28:25.680Z,18.26
2022-09-04T04:30:55.758Z,18.24
2022-09-04T04:33:44.922Z,18.24
2022-09-04T04:36:23.002Z,18.24
2022-09-04T04:39:05.712Z,18.24
2022-09-04T04:42:07.630Z,18.22
2022-09-04T04:45:04.966Z,18.21
2022-09-04T04:47:52.065Z,18.21
2022-09-04T04:50:27.206Z,18.20
2022-09-04T04:53:04.658Z,18.22
2022-09-04T04:55:40.557Z,18.23
2022-09-04T04:58:44.405Z,18.25
2022-09-04T05:01:24.428Z,18.26
2022-09-04T05:04:06.842Z,18.28
2022-09-04T05:06:42.547Z,18.27
2022-09-04T05:09:17.519Z,18.25
2022-09-04T05:11:55.029Z,18.24
2022-09-04T05:14:34.245Z,18.26
2022-09-04T05:17:14.170Z,18.27
2022-09-04T05:19:52.305Z,18.29
2022-09-04T05:22:26.450Z,18.32
2022-09-04T05:25:03.925Z,18.38
2022-09-04T05:27:45.832Z,18.43
2022-09-04T05:30:18.919Z,18.44
2022-09-04T05:32:54.926Z,18.47
2022-09-04T05:35:35.337Z,18.53
2022-09-04T05:38:09.874Z,18.56
2022-09-04T05:40:55.259Z,18.60
2022-09-04T05:43:34.472Z,18.62
2022-09-04T05:46:08.771Z,18.66
2022-09-04T05:48:45.563Z,18.71
2022-09-04T05:51:49.892Z,18.77
2022-09-04T05:54:58.718Z,18.82
2022-09-04T05:57:41.739Z,18.85
2022-09-04T06:00:16.144Z,18.87
2022-09-04T06:03:11.810Z,18.91
2022-09-04T06:05:58.117Z,18.96
2022-09-04T06:08:37.805Z,19.02
2022-09-04T06:11:35.521Z,19.05
2022-09-04T06:14:24.657Z,19.10
2022-09-04T06:17:09.970Z,19.15
2022-09-04T06:19:58.991Z,19.19
2022-09-04T06:23:03.545Z,19.25
2022-09-04T06:25:43.523Z,19.32
2022-09-04T06:28:36.324Z,19.39
2022-09-04T06:31:08.199Z,19.45
2022-09-04T06:33:57.334Z,19.47
2022-09-04T06:36:40.270Z,19.55
2022-09-04T06:39:23.707Z,19.63
2022-09-04T06:42:10.034Z,19.70
2022-09-04T06:44:52.240Z,19.79
2022-09-04T06:47:26.675Z,19.83
2022-09-04T06:50:09.725Z,19.92
2022-09-04T06:52:48.110Z,20.00
2022-09-04T06:55:25.425Z,20.08
2022-09-04T06:58:18.283Z,20.16
2022-09-04T07:00:53.523Z,20.27
2022-09-04T07:03:39.874Z,20.35
2022-09-04T07:06:15.046Z,20.43
2022-09-04T07:09:00.174Z,20.50
2022-09-04T07:11:44.270Z,20.57
2022-09-04T07:14:38.593Z,20.65
2022-09-04T07:17:12.467Z,20.71
2022-09-04T07:19:57.166Z,20.79
2022-09-04T07:22:47.280Z,20.87
2022-09-04T07:25:22.249Z,20.92
2022-09-04T07:28:05.463Z,20.99
2022-09-04T07:30:43.168Z,21.04
2022-09-04T07:33:18.076Z,21.13
2022-09-04T07:35:52.611Z,21.21
2022-09-04T07:38:30.087Z,21.27
2022-09-04T07:41:10.546Z,21.38
2022-09-04T07:43:54.487Z,21.43
2022-09-04T07:46:33.497Z,21.52
2022-09-04T07:49:09.556Z,21.55
2022-09-04T07:51:44.322Z,21.60
2022-09-04T07:54:45.330Z,21.69
2022-09-04T07:57:34.193Z,21.79
2022-09-04T08:00:09.533Z,21.87
2022-09-04T08:02:56.705Z,21.98
2022-09-04T08:05:28.682Z,22.07
2022-09-04T08:08:16.653Z,22.16
2022-09-04T08:11:00.624Z,22.22
2022-09-04T08:14:03.203Z,22.30
2022-09-04T08:16:40.553Z,22.38
2022-09-04T08:19:21.214Z,22.46
2022-09-04T08:21:51.017Z,22.52
2022-09-04T08:24:44.500Z,22.59
2022-09-04T08:27:23.719Z,22.62
2022-09-04T08:30:07.316Z,22.68
2022-09-04T08:33:01.910Z,22.72
2022-09-04T08:35:34.210Z,22.78
2022-09-04T08:38:16.101Z,22.86
2022-09-04T08:41:18.234Z,22.94
2022-09-04T08:44:14.288Z,23.03
2022-09-04T08:47:20.521Z,23.09
2022-09-04T08:50:13.562Z,23.16
2022-09-04T08:53:11.300Z,23.22
2022-09-04T08:56:15.950Z,23.26
2022-09-04T08:59:31.068Z,23.28
2022-09-04T09:02:12.076Z,23.35
2022-09-04T09:05:27.893Z,23.43
2022-09-04T09:08:14.626Z,23.52
2022-09-04T09:11:15.879Z,23.58
2022-09-04T09:14:02.074Z,23.60
2022-09-04T09:16:43.784Z,23.66
2022-09-04T09:19:22.744Z,23.75
2022-09-04T09:22:09.412Z,23.86
2022-09-04T09:25:11.240Z,23.94
2022-09-04T09:28:20.693Z,24.05
2022-09-04T09:31:16.873Z,24.14
2022-09-04T09:34:35.035Z,24.25
2022-09-04T09:37:50.382Z,24.34
2022-09-04T09:40:42.078Z,24.38
2022-09-04T09:43:34.608Z,24.42
2022-09-04T09:46:09.146Z,24.45
2022-09-04T09:49:15.004Z,24.57
2022-09-04T09:52:14.559Z,24.70
2022-09-04T09:55:21.783Z,24.80
2022-09-04T09:58:36.382Z,24.85
2022-09-04T10:01:19.214Z,24.94
2022-09-04T10:04:28.695Z,25.01
2022-09-04T10:07:30.813Z,25.10
2022-09-04T10:10:18.402Z,25.13
2022-09-04T10:13:27.201Z,25.17
2022-09-04T10:16:36.616Z,25.20
2022-09-04T10:19:43.186Z,25.26
2022-09-04T10:22:49.183Z,25.34
2022-09-04T10:25:49.123Z,25.32
2022-09-04T10:28:30.934Z,25.34
2022-09-04T10:31:34.077Z,25.44
2022-09-04T10:34:26.444Z,25.50
2022-09-04T10:36:59.787Z,25.50
2022-09-04T10:39:55.390Z,25.53
2022-09-04T10:42:37.327Z,25.55
2022-09-04T10:45:17.970Z,25.49
2022-09-04T10:48:08.012Z,25.48
2022-09-04T10:51:01.943Z,25.47
2022-09-04T10:54:14.755Z,25.43
2022-09-04T10:56:49.693Z,25.37
2022-09-04T10:59:38.589Z,25.37
2022-09-04T11:02:35.925Z,25.43
2022-09-04T11:05:25.052Z,25.50
2022-09-04T11:08:21.094Z,25.63
2022-09-04T11:11:15.490Z,25.70
2022-09-04T11:14:03.710Z,25.79
2022-09-04T11:16:50.794Z,25.79
2022-09-04T11:19:44.901Z,25.80
2022-09-04T11:22:52.575Z,25.87
2022-09-04T11:26:02.864Z,25.99
2022-09-04T11:29:01.298Z,26.16
2022-09-04T11:31:48.423Z,26.21
2022-09-04T11:34:55.676Z,26.31
2022-09-04T11:37:44.315Z,26.32
2022-09-04T11:40:40.514Z,26.31
2022-09-04T11:43:30.219Z,26.34
2022-09-04T11:46:21.256Z,26.39
2022-09-04T11:49:07.904Z,26.38
2022-09-04T11:52:04.996Z,26.49
2022-09-04T11:54:54.264Z,26.68
2022-09-04T11:57:36.155Z,26.95
2022-09-04T12:00:11.448Z,27.08
2022-09-04T12:03:21.284Z,27.13
2022-09-04T12:06:12.448Z,27.23
2022-09-04T12:09:08.465Z,27.47
2022-09-04T12:12:16.561Z,27.56
2022-09-04T12:15:18.306Z,27.49
2022-09-04T12:18:31.307Z,27.46
2022-09-04T12:21:25.573Z,27.47
2022-09-04T12:24:21.483Z,27.51
2022-09-04T12:27:11.384Z,27.49
2022-09-04T12:30:05.838Z,27.44
2022-09-04T12:32:58.841Z,27.44
2022-09-04T12:35:44.783Z,27.51
2022-09-04T12:38:32.717Z,27.46
2022-09-04T12:41:09.882Z,27.44
2022-09-04T12:43:52.352Z,27.53
2022-09-04T12:46:35.684Z,27.73
2022-09-04T12:49:19.424Z,27.94
2022-09-04T12:51:55.279Z,28.12
2022-09-04T12:54:35.118Z,28.29
2022-09-04T12:57:22.712Z,28.39
2022-09-04T13:00:05.025Z,28.42
2022-09-04T13:02:46.914Z,28.49
2022-09-04T13:05:36.779Z,28.51
2022-09-04T13:08:20.228Z,28.60
2022-09-04T13:11:01.453Z,28.67
2022-09-04T13:13:42.977Z,28.72
2022-09-04T13:16:20.433Z,28.81
2022-09-04T13:19:00.250Z,28.86
2022-09-04T13:21:44.324Z,28.79
2022-09-04T13:24:25.486Z,28.73
2022-09-04T13:27:09.126Z,28.62
2022-09-04T13:29:50.617Z,28.71
2022-09-04T13:32:52.095Z,28.82
2022-09-04T13:35:36.756Z,28.89
2022-09-04T13:38:26.380Z,28.87
2022-09-04T13:41:30.455Z,28.95
2022-09-04T13:44:23.499Z,28.97
2022-09-04T13:46:59.622Z,28.98
2022-09-04T13:49:32.134Z,28.98
2022-09-04T13:52:06.689Z,28.92
2022-09-04T13:54:39.543Z,28.95
2022-09-04T13:57:12.368Z,28.93
2022-09-04T13:59:43.518Z,28.89
2022-09-04T14:02:15.161Z,28.86
2022-09-04T14:04:46.732Z,28.85
2022-09-04T14:07:19.498Z,28.87
2022-09-04T14:09:51.255Z,28.93
2022-09-04T14:12:41.600Z,29.02
2022-09-04T14:15:33.264Z,29.08
2022-09-04T14:18:14.093Z,29.09
2022-09-04T14:21:01.413Z,29.10
2022-09-04T14:23:40.999Z,29.11
2022-09-04T14:26:21.473Z,29.11
2022-09-04T14:28:57.455Z,29.02
2022-09-04T14:31:35.208Z,28.89
2022-09-04T14:34:16.809Z,28.83
2022-09-04T14:36:55.192Z,28.82
2022-09-04T14:39:31.376Z,28.80
2022-09-04T14:42:16.243Z,28.79
2022-09-04T14:45:01.605Z,28.88
2022-09-04T14:47:42.237Z,28.91
2022-09-04T14:50:13.322Z,28.88
2022-09-04T14:52:44.888Z,28.84
2022-09-04T14:55:17.366Z,28.89
2022-09-04T14:57:51.454Z,28.96
2022-09-04T15:00:21.193Z,29.02
2022-09-04T15:03:00.757Z,29.06
2022-09-04T15:05:34.119Z,29.05
2022-09-04T15:08:03.919Z,28.96
2022-09-04T15:10:37.054Z,28.89
2022-09-04T15:13:42.698Z,28.85
2022-09-04T15:16:20.484Z,28.81
2022-09-04T15:18:59.015Z,28.80
2022-09-04T15:21:34.815Z,28.80
2022-09-04T15:24:13.052Z,28.83
2022-09-04T15:26:46.707Z,28.88
2022-09-04T15:29:20.283Z,28.91
2022-09-04T15:31:48.384Z,28.95
2022-09-04T15:34:25.587Z,28.95
2022-09-04T15:36:54.590Z,28.95
2022-09-04T15:39:30.989Z,28.97
2022-09-04T15:42:00.084Z,28.97
2022-09-04T15:44:33.364Z,28.95
2022-09-04T15:47:07.295Z,28.93
2022-09-04T15:49:47.608Z,28.87
2022-09-04T15:52:31.247Z,28.84
2022-09-04T15:55:10.717Z,28.80
2022-09-04T15:57:56.012Z,28.78
2022-09-04T16:00:27.277Z,28.74
2022-09-04T16:03:06.884Z,28.75
2022-09-04T16:05:45.091Z,28.74
2022-09-04T16:08:23.594Z,28.71
2022-09-04T16:10:59.948Z,28.72
2022-09-04T16:13:57.822Z,28.68
2022-09-04T16:16:31.284Z,28.70
2022-09-04T16:19:08.701Z,28.69
2022-09-04T16:21:48.140Z,28.69
2022-09-04T16:24:19.869Z,28.70
2022-09-04T16:26:50.480Z,28.71
2022-09-04T16:29:36.501Z,28.73
2022-09-04T16:32:09.693Z,28.72
2022-09-04T16:34:46.504Z,28.70
2022-09-04T16:37:21.636Z,28.70
2022-09-04T16:40:14.179Z,28.72
2022-09-04T16:42:47.357Z,28.66
2022-09-04T16:45:20.958Z,28.62
2022-09-04T16:47:59.093Z,28.59
2022-09-04T16:50:42.138Z,28.56
2022-09-04T16:53:17.525Z,28.54
2022-09-04T16:55:58.162Z,28.52
2022-09-04T16:58:39.865Z,28.41
2022-09-04T17:01:15.597Z,28.17
2022-09-04T17:04:13.251Z,28.12
2022-09-04T17:06:54.231Z,28.12
2022-09-04T17:09:29.017Z,28.13
2022-09-04T17:12:01.477Z,28.17
2022-09-04T17:14:36.242Z,28.17
2022-09-04T17:17:30.307Z,28.19
2022-09-04T17:20:08.398Z,28.19
2022-09-04T17:28:56.659Z,28.11
2022-09-04T17:29:04.062Z,28.15
2022-09-04T17:29:17.726Z,28.02
2022-09-04T17:31:45.618Z,27.94
2022-09-04T17:40:33.973Z,27.91
2022-09-04T17:40:49.733Z,27.80
2022-09-04T17:40:56.104Z,27.87
2022-09-04T17:43:24.454Z,27.72
2022-09-04T17:46:06.697Z,27.67
2022-09-04T17:48:41.549Z,27.61
2022-09-04T17:51:17.410Z,27.55
2022-09-04T17:53:51.620Z,27.49
2022-09-04T17:56:25.146Z,27.43
2022-09-04T17:59:00.858Z,27.37
2022-09-04T18:01:34.693Z,27.27
2022-09-04T18:04:22.398Z,27.18
2022-09-04T18:06:59.808Z,27.07
2022-09-04T18:09:34.861Z,26.97
2022-09-04T18:12:12.316Z,26.87
2022-09-04T18:15:12.921Z,26.81
2022-09-04T18:17:51.001Z,26.75
2022-09-04T18:20:31.264Z,26.67
2022-09-04T18:23:17.683Z,26.60
2022-09-04T18:25:51.524Z,26.52
2022-09-04T18:28:26.467Z,26.46
2022-09-04T18:37:07.541Z,26.39
2022-09-04T18:37:18.214Z,26.32
2022-09-04T18:37:22.864Z,26.24
2022-09-04T18:39:50.559Z,26.17
2022-09-04T18:48:33.357Z,26.09
2022-09-04T18:50:25.371Z,26.01
2022-09-04T18:50:51.994Z,25.91
2022-09-04T18:51:21.046Z,25.85
2022-09-04T18:53:53.847Z,25.81
2022-09-04T18:56:23.978Z,25.79
2022-09-04T18:58:58.308Z,25.74
2022-09-04T19:01:32.797Z,25.70
2022-09-04T19:04:30.981Z,25.65
2022-09-04T19:07:07.053Z,25.59
2022-09-04T19:09:59.884Z,25.52
2022-09-04T19:12:47.506Z,25.45
2022-09-04T19:15:37.716Z,25.39
2022-09-04T19:18:14.963Z,25.31
2022-09-04T19:20:49.123Z,25.25
2022-09-04T19:23:27.171Z,25.18
2022-09-04T19:25:57.529Z,25.10
2022-09-04T19:28:28.229Z,25.02
2022-09-04T19:31:01.705Z,24.97
2022-09-04T19:33:39.014Z,24.92
2022-09-04T19:36:15.938Z,24.87
2022-09-04T19:44:50.322Z,24.83
2022-09-04T19:46:03.259Z,24.66
2022-09-04T19:46:08.647Z,24.77
2022-09-04T19:47:38.682Z,24.61
2022-09-04T19:53:17.966Z,24.58
2022-09-04T19:53:40.657Z,24.53
2022-09-04T19:56:08.379Z,24.49
2022-09-04T19:58:42.648Z,24.47
2022-09-04T20:01:16.124Z,24.41
2022-09-04T20:03:49.650Z,24.38
2022-09-04T20:06:25.448Z,24.33
2022-09-04T20:09:02.765Z,24.29
2022-09-04T20:11:36.235Z,24.23
2022-09-04T20:14:13.804Z,24.16
2022-09-04T20:16:52.538Z,24.09
2022-09-04T20:19:27.793Z,24.04
2022-09-04T20:22:01.831Z,23.97
2022-09-04T20:24:41.986Z,23.92
2022-09-04T20:27:37.363Z,23.87
2022-09-04T20:30:12.086Z,23.84
2022-09-04T20:32:49.491Z,23.80
2022-09-04T20:35:33.869Z,23.75
2022-09-04T20:38:12.461Z,23.71
2022-09-04T20:40:47.077Z,23.64
2022-09-04T20:43:26.618Z,23.58
2022-09-04T20:51:55.235Z,23.54
2022-09-04T20:52:53.855Z,23.46
2022-09-04T20:52:54.895Z,23.38
2022-09-04T20:55:10.330Z,23.33
2022-09-04T21:01:29.021Z,23.29
2022-09-04T21:03:08.357Z,23.25
2022-09-04T21:03:57.257Z,23.20
2022-09-04T21:06:32.445Z,23.15
2022-09-04T21:09:11.437Z,23.11
2022-09-04T21:11:43.477Z,23.08
2022-09-04T21:14:17.854Z,23.03
2022-09-04T21:16:59.582Z,22.99
2022-09-04T21:19:45.840Z,22.94
2022-09-04T21:22:32.938Z,22.90
2022-09-04T21:25:24.440Z,22.84
2022-09-04T21:28:27.476Z,22.79
2022-09-04T21:31:10.041Z,22.75
2022-09-04T21:33:45.911Z,22.74
2022-09-04T21:36:26.413Z,22.69
2022-09-04T21:39:42.285Z,22.65
2022-09-04T21:42:41.891Z,22.60
2022-09-04T21:45:24.351Z,22.56
2022-09-04T21:48:28.615Z,22.53
2022-09-04T21:51:28.793Z,22.50
2022-09-04T21:56:18.074Z,22.46
2022-09-04T22:02:27.596Z,22.42
2022-09-04T22:02:42.418Z,22.38
2022-09-04T22:04:02.330Z,22.34
2022-09-04T22:09:38.380Z,22.30
2022-09-04T22:13:37.629Z,22.24
2022-09-04T22:13:41.042Z,22.21
2022-09-04T22:15:48.141Z,22.18
2022-09-04T22:18:42.416Z,22.14
2022-09-04T22:21:25.424Z,22.11
2022-09-04T22:24:14.554Z,22.08
2022-09-04T22:27:10.365Z,22.05
2022-09-04T22:29:52.772Z,21.99
2022-09-04T22:32:30.835Z,21.98
2022-09-04T22:35:36.313Z,21.93
2022-09-04T22:38:31.213Z,21.89
2022-09-04T22:41:19.232Z,21.86
2022-09-04T22:43:58.705Z,21.84
2022-09-04T22:46:48.012Z,21.85
2022-09-04T22:49:47.405Z,21.83
2022-09-04T22:52:29.698Z,21.81
2022-09-04T22:55:29.237Z,21.80
2022-09-04T22:58:15.510Z,21.75
2022-09-04T23:01:03.295Z,21.70
2022-09-04T23:03:51.817Z,21.66
2022-09-04T23:09:07.299Z,21.65
2022-09-04T23:13:49.423Z,21.62
2022-09-04T23:13:57.804Z,21.58
2022-09-04T23:16:49.375Z,21.52
2022-09-04T23:25:50.757Z,21.44
2022-09-04T23:26:33.209Z,21.39
2022-09-04T23:26:53.587Z,21.39
2022-09-04T23:29:06.561Z,21.36
2022-09-04T23:32:07.490Z,21.36
2022-09-04T23:35:13.798Z,21.34
2022-09-04T23:38:09.071Z,21.31
2022-09-04T23:40:42.006Z,21.29
2022-09-04T23:43:32.513Z,21.26
2022-09-04T23:46:27.632Z,21.22
2022-09-04T23:49:33.275Z,21.20
2022-09-04T23:52:07.923Z,21.16
2022-09-04T23:54:54.071Z,21.12
2022-09-04T23:57:29.034Z,21.09
